<?xml version="1.0" encoding="utf-8"?>
<gpx xmlns:xsi="http://www.w3.org/2001/XMLSchema-instance" xmlns:xsd="http://www.w3.org/2001/XMLSchema" version="1.1" creator="Shapelink.com" xmlns="http://www.topografix.com/GPX/1/1" xmlns:gpxtpx="http://www.garmin.com/xmlschemas/TrackPointExtension/v1">
  <metadata>
    <name>Gåing 0.62 km, 2013-05-15</name>
    <desc></desc>
    <author><name>Mikael Blom</name></author> 
    <time>2013-05-15T21:01:21Z</time>
  </metadata>
  <trk>
    <name>Gåing 0.62 km, 2013-05-15</name>
    <trkseg>
      <trkpt lat="59.9554794" lon="17.7153099">
        <ele>48.684</ele>
        <time>2013-05-15T21:01:21Z</time>
      </trkpt>
      <trkpt lat="59.9554806" lon="17.7153772">
        <ele>48.2034</ele>
        <time>2013-05-15T21:01:22Z</time>
      </trkpt>
      <trkpt lat="59.9554723" lon="17.7153761">
        <ele>47.7225</ele>
        <time>2013-05-15T21:01:23Z</time>
      </trkpt>
      <trkpt lat="59.955476" lon="17.7154041">
        <ele>47.2418</ele>
        <time>2013-05-15T21:01:24Z</time>
      </trkpt>
      <trkpt lat="59.9554754" lon="17.7154491">
        <ele>47.7225</ele>
        <time>2013-05-15T21:01:25Z</time>
      </trkpt>
      <trkpt lat="59.9554683" lon="17.7154921">
        <ele>47.2418</ele>
        <time>2013-05-15T21:01:26Z</time>
      </trkpt>
      <trkpt lat="59.9554693" lon="17.7155367">
        <ele>47.7225</ele>
        <time>2013-05-15T21:01:27Z</time>
      </trkpt>
      <trkpt lat="59.9554734" lon="17.7155808">
        <ele>47.2418</ele>
        <time>2013-05-15T21:01:28Z</time>
      </trkpt>
      <trkpt lat="59.9554752" lon="17.7156311">
        <ele>46.7612</ele>
        <time>2013-05-15T21:01:29Z</time>
      </trkpt>
      <trkpt lat="59.9554773" lon="17.7156724">
        <ele>46.7612</ele>
        <time>2013-05-15T21:01:30Z</time>
      </trkpt>
      <trkpt lat="59.9554775" lon="17.7157144">
        <ele>46.2806</ele>
        <time>2013-05-15T21:01:31Z</time>
      </trkpt>
      <trkpt lat="59.9554832" lon="17.7157531">
        <ele>45.7999</ele>
        <time>2013-05-15T21:01:32Z</time>
      </trkpt>
      <trkpt lat="59.9554878" lon="17.715806">
        <ele>45.3192</ele>
        <time>2013-05-15T21:01:33Z</time>
      </trkpt>
      <trkpt lat="59.9554957" lon="17.7158672">
        <ele>44.8386</ele>
        <time>2013-05-15T21:01:34Z</time>
      </trkpt>
      <trkpt lat="59.9555001" lon="17.7159185">
        <ele>44.8386</ele>
        <time>2013-05-15T21:01:35Z</time>
      </trkpt>
      <trkpt lat="59.9555122" lon="17.7159688">
        <ele>44.358</ele>
        <time>2013-05-15T21:01:36Z</time>
      </trkpt>
      <trkpt lat="59.9555226" lon="17.7160214">
        <ele>43.8773</ele>
        <time>2013-05-15T21:01:37Z</time>
      </trkpt>
      <trkpt lat="59.9555272" lon="17.7160725">
        <ele>43.3966</ele>
        <time>2013-05-15T21:01:38Z</time>
      </trkpt>
      <trkpt lat="59.9555292" lon="17.7161183">
        <ele>43.3966</ele>
        <time>2013-05-15T21:01:39Z</time>
      </trkpt>
      <trkpt lat="59.9555267" lon="17.7161583">
        <ele>42.916</ele>
        <time>2013-05-15T21:01:40Z</time>
      </trkpt>
      <trkpt lat="59.9555282" lon="17.7161923">
        <ele>42.916</ele>
        <time>2013-05-15T21:01:41Z</time>
      </trkpt>
      <trkpt lat="59.9555247" lon="17.7162301">
        <ele>42.4354</ele>
        <time>2013-05-15T21:01:42Z</time>
      </trkpt>
      <trkpt lat="59.9555325" lon="17.7162744">
        <ele>42.4354</ele>
        <time>2013-05-15T21:01:43Z</time>
      </trkpt>
      <trkpt lat="59.9555371" lon="17.7163246">
        <ele>42.4354</ele>
        <time>2013-05-15T21:01:44Z</time>
      </trkpt>
      <trkpt lat="59.9555351" lon="17.7163717">
        <ele>42.4354</ele>
        <time>2013-05-15T21:01:45Z</time>
      </trkpt>
      <trkpt lat="59.9555345" lon="17.7164132">
        <ele>42.4354</ele>
        <time>2013-05-15T21:01:46Z</time>
      </trkpt>
      <trkpt lat="59.9555386" lon="17.7164572">
        <ele>42.916</ele>
        <time>2013-05-15T21:01:47Z</time>
      </trkpt>
      <trkpt lat="59.9555477" lon="17.716536">
        <ele>42.916</ele>
        <time>2013-05-15T21:01:50Z</time>
      </trkpt>
      <trkpt lat="59.9555495" lon="17.7165511">
        <ele>43.3966</ele>
        <time>2013-05-15T21:01:51Z</time>
      </trkpt>
      <trkpt lat="59.9555525" lon="17.716565">
        <ele>43.8773</ele>
        <time>2013-05-15T21:01:52Z</time>
      </trkpt>
      <trkpt lat="59.9555535" lon="17.7165774">
        <ele>43.3966</ele>
        <time>2013-05-15T21:01:53Z</time>
      </trkpt>
      <trkpt lat="59.9555581" lon="17.7166189">
        <ele>43.3966</ele>
        <time>2013-05-15T21:01:54Z</time>
      </trkpt>
      <trkpt lat="59.9555634" lon="17.7166472">
        <ele>43.3966</ele>
        <time>2013-05-15T21:01:55Z</time>
      </trkpt>
      <trkpt lat="59.9555715" lon="17.7166791">
        <ele>43.8773</ele>
        <time>2013-05-15T21:01:56Z</time>
      </trkpt>
      <trkpt lat="59.9555821" lon="17.7167079">
        <ele>43.8773</ele>
        <time>2013-05-15T21:01:57Z</time>
      </trkpt>
      <trkpt lat="59.955589" lon="17.7167409">
        <ele>43.8773</ele>
        <time>2013-05-15T21:01:58Z</time>
      </trkpt>
      <trkpt lat="59.9555964" lon="17.7167705">
        <ele>43.8773</ele>
        <time>2013-05-15T21:01:59Z</time>
      </trkpt>
      <trkpt lat="59.9556012" lon="17.7167875">
        <ele>43.8773</ele>
        <time>2013-05-15T21:02:00Z</time>
      </trkpt>
      <trkpt lat="59.9556032" lon="17.7168057">
        <ele>43.8773</ele>
        <time>2013-05-15T21:02:01Z</time>
      </trkpt>
      <trkpt lat="59.9556049" lon="17.7168259">
        <ele>43.8773</ele>
        <time>2013-05-15T21:02:02Z</time>
      </trkpt>
      <trkpt lat="59.9556104" lon="17.7168448">
        <ele>44.358</ele>
        <time>2013-05-15T21:02:03Z</time>
      </trkpt>
      <trkpt lat="59.9556143" lon="17.7168602">
        <ele>44.358</ele>
        <time>2013-05-15T21:02:04Z</time>
      </trkpt>
      <trkpt lat="59.9556174" lon="17.7168782">
        <ele>43.8773</ele>
        <time>2013-05-15T21:02:05Z</time>
      </trkpt>
      <trkpt lat="59.9556195" lon="17.7169002">
        <ele>43.8773</ele>
        <time>2013-05-15T21:02:06Z</time>
      </trkpt>
      <trkpt lat="59.9556225" lon="17.7169265">
        <ele>44.358</ele>
        <time>2013-05-15T21:02:07Z</time>
      </trkpt>
      <trkpt lat="59.9556244" lon="17.7169502">
        <ele>44.358</ele>
        <time>2013-05-15T21:02:08Z</time>
      </trkpt>
      <trkpt lat="59.9556271" lon="17.7169699">
        <ele>44.8386</ele>
        <time>2013-05-15T21:02:09Z</time>
      </trkpt>
      <trkpt lat="59.9556302" lon="17.7169813">
        <ele>44.8386</ele>
        <time>2013-05-15T21:02:10Z</time>
      </trkpt>
      <trkpt lat="59.9556324" lon="17.7169898">
        <ele>45.3192</ele>
        <time>2013-05-15T21:02:11Z</time>
      </trkpt>
      <trkpt lat="59.9556353" lon="17.7169955">
        <ele>45.7999</ele>
        <time>2013-05-15T21:02:12Z</time>
      </trkpt>
      <trkpt lat="59.9556376" lon="17.7170053">
        <ele>45.7999</ele>
        <time>2013-05-15T21:02:13Z</time>
      </trkpt>
      <trkpt lat="59.9556406" lon="17.7170152">
        <ele>45.3192</ele>
        <time>2013-05-15T21:02:14Z</time>
      </trkpt>
      <trkpt lat="59.9556443" lon="17.7170406">
        <ele>45.7999</ele>
        <time>2013-05-15T21:02:15Z</time>
      </trkpt>
      <trkpt lat="59.9556503" lon="17.7170662">
        <ele>46.7612</ele>
        <time>2013-05-15T21:02:16Z</time>
      </trkpt>
      <trkpt lat="59.9556534" lon="17.7170874">
        <ele>47.2418</ele>
        <time>2013-05-15T21:02:17Z</time>
      </trkpt>
      <trkpt lat="59.9556563" lon="17.7171046">
        <ele>47.2418</ele>
        <time>2013-05-15T21:02:18Z</time>
      </trkpt>
      <trkpt lat="59.9556593" lon="17.7171175">
        <ele>47.2418</ele>
        <time>2013-05-15T21:02:19Z</time>
      </trkpt>
      <trkpt lat="59.9556655" lon="17.7171259">
        <ele>47.2418</ele>
        <time>2013-05-15T21:02:20Z</time>
      </trkpt>
      <trkpt lat="59.9556743" lon="17.7171338">
        <ele>47.7225</ele>
        <time>2013-05-15T21:02:21Z</time>
      </trkpt>
      <trkpt lat="59.9556831" lon="17.717139">
        <ele>48.2034</ele>
        <time>2013-05-15T21:02:22Z</time>
      </trkpt>
      <trkpt lat="59.9556863" lon="17.7171504">
        <ele>48.2034</ele>
        <time>2013-05-15T21:02:23Z</time>
      </trkpt>
      <trkpt lat="59.9556919" lon="17.7171509">
        <ele>48.2034</ele>
        <time>2013-05-15T21:02:24Z</time>
      </trkpt>
      <trkpt lat="59.9556948" lon="17.7171596">
        <ele>48.2034</ele>
        <time>2013-05-15T21:02:25Z</time>
      </trkpt>
      <trkpt lat="59.9556961" lon="17.7171802">
        <ele>48.2034</ele>
        <time>2013-05-15T21:02:26Z</time>
      </trkpt>
      <trkpt lat="59.9557007" lon="17.7172006">
        <ele>48.2034</ele>
        <time>2013-05-15T21:02:27Z</time>
      </trkpt>
      <trkpt lat="59.9557064" lon="17.7172192">
        <ele>48.2034</ele>
        <time>2013-05-15T21:02:28Z</time>
      </trkpt>
      <trkpt lat="59.9557114" lon="17.7172358">
        <ele>48.2034</ele>
        <time>2013-05-15T21:02:29Z</time>
      </trkpt>
      <trkpt lat="59.9557168" lon="17.7172546">
        <ele>48.684</ele>
        <time>2013-05-15T21:02:30Z</time>
      </trkpt>
      <trkpt lat="59.9557246" lon="17.7172679">
        <ele>48.684</ele>
        <time>2013-05-15T21:02:31Z</time>
      </trkpt>
      <trkpt lat="59.9557359" lon="17.7172814">
        <ele>48.684</ele>
        <time>2013-05-15T21:02:32Z</time>
      </trkpt>
      <trkpt lat="59.9557473" lon="17.7172892">
        <ele>49.1646</ele>
        <time>2013-05-15T21:02:33Z</time>
      </trkpt>
      <trkpt lat="59.9557582" lon="17.7172948">
        <ele>49.6453</ele>
        <time>2013-05-15T21:02:34Z</time>
      </trkpt>
      <trkpt lat="59.9557639" lon="17.7173223">
        <ele>49.6453</ele>
        <time>2013-05-15T21:02:35Z</time>
      </trkpt>
      <trkpt lat="59.9557676" lon="17.7173483">
        <ele>50.126</ele>
        <time>2013-05-15T21:02:36Z</time>
      </trkpt>
      <trkpt lat="59.9557707" lon="17.7173703">
        <ele>50.126</ele>
        <time>2013-05-15T21:02:37Z</time>
      </trkpt>
      <trkpt lat="59.9557764" lon="17.7173906">
        <ele>50.6066</ele>
        <time>2013-05-15T21:02:38Z</time>
      </trkpt>
      <trkpt lat="59.9557795" lon="17.717414">
        <ele>50.126</ele>
        <time>2013-05-15T21:02:39Z</time>
      </trkpt>
      <trkpt lat="59.95578" lon="17.7174321">
        <ele>50.126</ele>
        <time>2013-05-15T21:02:40Z</time>
      </trkpt>
      <trkpt lat="59.9557836" lon="17.7174499">
        <ele>50.126</ele>
        <time>2013-05-15T21:02:41Z</time>
      </trkpt>
      <trkpt lat="59.9557919" lon="17.7174685">
        <ele>50.126</ele>
        <time>2013-05-15T21:02:42Z</time>
      </trkpt>
      <trkpt lat="59.9558033" lon="17.71749">
        <ele>50.6066</ele>
        <time>2013-05-15T21:02:43Z</time>
      </trkpt>
      <trkpt lat="59.9558125" lon="17.7175093">
        <ele>50.6066</ele>
        <time>2013-05-15T21:02:44Z</time>
      </trkpt>
      <trkpt lat="59.9558209" lon="17.7175269">
        <ele>51.0872</ele>
        <time>2013-05-15T21:02:45Z</time>
      </trkpt>
      <trkpt lat="59.9558302" lon="17.7175518">
        <ele>51.0872</ele>
        <time>2013-05-15T21:02:46Z</time>
      </trkpt>
      <trkpt lat="59.9558366" lon="17.7175744">
        <ele>51.0872</ele>
        <time>2013-05-15T21:02:47Z</time>
      </trkpt>
      <trkpt lat="59.9558406" lon="17.7176029">
        <ele>51.0872</ele>
        <time>2013-05-15T21:02:48Z</time>
      </trkpt>
      <trkpt lat="59.9558476" lon="17.7176195">
        <ele>51.0872</ele>
        <time>2013-05-15T21:02:49Z</time>
      </trkpt>
      <trkpt lat="59.9558551" lon="17.7176331">
        <ele>51.0872</ele>
        <time>2013-05-15T21:02:50Z</time>
      </trkpt>
      <trkpt lat="59.9558622" lon="17.7176548">
        <ele>51.0872</ele>
        <time>2013-05-15T21:02:51Z</time>
      </trkpt>
      <trkpt lat="59.9558696" lon="17.7176793">
        <ele>51.0872</ele>
        <time>2013-05-15T21:02:52Z</time>
      </trkpt>
      <trkpt lat="59.9558751" lon="17.7176969">
        <ele>51.0872</ele>
        <time>2013-05-15T21:02:53Z</time>
      </trkpt>
      <trkpt lat="59.9558815" lon="17.7177175">
        <ele>51.0872</ele>
        <time>2013-05-15T21:02:54Z</time>
      </trkpt>
      <trkpt lat="59.955891" lon="17.7177484">
        <ele>51.0872</ele>
        <time>2013-05-15T21:02:55Z</time>
      </trkpt>
      <trkpt lat="59.9558996" lon="17.7177776">
        <ele>50.6066</ele>
        <time>2013-05-15T21:02:56Z</time>
      </trkpt>
      <trkpt lat="59.9559079" lon="17.7178104">
        <ele>50.6066</ele>
        <time>2013-05-15T21:02:57Z</time>
      </trkpt>
      <trkpt lat="59.9559172" lon="17.7178373">
        <ele>50.126</ele>
        <time>2013-05-15T21:02:58Z</time>
      </trkpt>
      <trkpt lat="59.9559275" lon="17.717856">
        <ele>50.126</ele>
        <time>2013-05-15T21:02:59Z</time>
      </trkpt>
      <trkpt lat="59.9559421" lon="17.7178661">
        <ele>50.126</ele>
        <time>2013-05-15T21:03:00Z</time>
      </trkpt>
      <trkpt lat="59.9559525" lon="17.7178735">
        <ele>49.6453</ele>
        <time>2013-05-15T21:03:01Z</time>
      </trkpt>
      <trkpt lat="59.9559638" lon="17.7178921">
        <ele>49.6453</ele>
        <time>2013-05-15T21:03:02Z</time>
      </trkpt>
      <trkpt lat="59.955978" lon="17.7179168">
        <ele>49.1646</ele>
        <time>2013-05-15T21:03:03Z</time>
      </trkpt>
      <trkpt lat="59.9559917" lon="17.7179381">
        <ele>48.684</ele>
        <time>2013-05-15T21:03:04Z</time>
      </trkpt>
      <trkpt lat="59.9560034" lon="17.71796">
        <ele>48.684</ele>
        <time>2013-05-15T21:03:05Z</time>
      </trkpt>
      <trkpt lat="59.9560157" lon="17.7179774">
        <ele>48.684</ele>
        <time>2013-05-15T21:03:06Z</time>
      </trkpt>
      <trkpt lat="59.956026" lon="17.7180031">
        <ele>49.1646</ele>
        <time>2013-05-15T21:03:07Z</time>
      </trkpt>
      <trkpt lat="59.9560349" lon="17.7180303">
        <ele>49.1646</ele>
        <time>2013-05-15T21:03:08Z</time>
      </trkpt>
      <trkpt lat="59.9560472" lon="17.7180538">
        <ele>48.684</ele>
        <time>2013-05-15T21:03:09Z</time>
      </trkpt>
      <trkpt lat="59.9560613" lon="17.7180771">
        <ele>48.684</ele>
        <time>2013-05-15T21:03:10Z</time>
      </trkpt>
      <trkpt lat="59.9560717" lon="17.7180957">
        <ele>47.7225</ele>
        <time>2013-05-15T21:03:11Z</time>
      </trkpt>
      <trkpt lat="59.9560799" lon="17.7181181">
        <ele>47.7225</ele>
        <time>2013-05-15T21:03:12Z</time>
      </trkpt>
      <trkpt lat="59.9560849" lon="17.7181356">
        <ele>47.7225</ele>
        <time>2013-05-15T21:03:13Z</time>
      </trkpt>
      <trkpt lat="59.9560876" lon="17.7181567">
        <ele>47.2418</ele>
        <time>2013-05-15T21:03:14Z</time>
      </trkpt>
      <trkpt lat="59.9560922" lon="17.7181822">
        <ele>47.2418</ele>
        <time>2013-05-15T21:03:15Z</time>
      </trkpt>
      <trkpt lat="59.9560975" lon="17.718208">
        <ele>47.2418</ele>
        <time>2013-05-15T21:03:16Z</time>
      </trkpt>
      <trkpt lat="59.9561047" lon="17.7182322">
        <ele>47.7225</ele>
        <time>2013-05-15T21:03:17Z</time>
      </trkpt>
      <trkpt lat="59.9561124" lon="17.7182556">
        <ele>47.7225</ele>
        <time>2013-05-15T21:03:18Z</time>
      </trkpt>
      <trkpt lat="59.9561204" lon="17.7182797">
        <ele>48.2034</ele>
        <time>2013-05-15T21:03:19Z</time>
      </trkpt>
      <trkpt lat="59.9561265" lon="17.7183006">
        <ele>48.2034</ele>
        <time>2013-05-15T21:03:20Z</time>
      </trkpt>
      <trkpt lat="59.9561364" lon="17.7183199">
        <ele>48.684</ele>
        <time>2013-05-15T21:03:21Z</time>
      </trkpt>
      <trkpt lat="59.9561473" lon="17.7183507">
        <ele>49.1646</ele>
        <time>2013-05-15T21:03:22Z</time>
      </trkpt>
      <trkpt lat="59.9561551" lon="17.7183763">
        <ele>49.1646</ele>
        <time>2013-05-15T21:03:23Z</time>
      </trkpt>
      <trkpt lat="59.9561601" lon="17.7183999">
        <ele>49.1646</ele>
        <time>2013-05-15T21:03:24Z</time>
      </trkpt>
      <trkpt lat="59.9561645" lon="17.7184267">
        <ele>49.1646</ele>
        <time>2013-05-15T21:03:25Z</time>
      </trkpt>
      <trkpt lat="59.9561732" lon="17.7184593">
        <ele>49.6453</ele>
        <time>2013-05-15T21:03:26Z</time>
      </trkpt>
      <trkpt lat="59.9561828" lon="17.7184846">
        <ele>49.6453</ele>
        <time>2013-05-15T21:03:27Z</time>
      </trkpt>
      <trkpt lat="59.9561913" lon="17.718508">
        <ele>50.126</ele>
        <time>2013-05-15T21:03:28Z</time>
      </trkpt>
      <trkpt lat="59.9561987" lon="17.7185381">
        <ele>50.6066</ele>
        <time>2013-05-15T21:03:29Z</time>
      </trkpt>
      <trkpt lat="59.9562031" lon="17.7185612">
        <ele>50.6066</ele>
        <time>2013-05-15T21:03:30Z</time>
      </trkpt>
      <trkpt lat="59.9562063" lon="17.7185831">
        <ele>50.6066</ele>
        <time>2013-05-15T21:03:31Z</time>
      </trkpt>
      <trkpt lat="59.9562106" lon="17.7186064">
        <ele>51.0872</ele>
        <time>2013-05-15T21:03:32Z</time>
      </trkpt>
      <trkpt lat="59.9562125" lon="17.7186325">
        <ele>51.5679</ele>
        <time>2013-05-15T21:03:33Z</time>
      </trkpt>
      <trkpt lat="59.956215" lon="17.7186581">
        <ele>51.5679</ele>
        <time>2013-05-15T21:03:34Z</time>
      </trkpt>
      <trkpt lat="59.9562168" lon="17.7186785">
        <ele>51.5679</ele>
        <time>2013-05-15T21:03:35Z</time>
      </trkpt>
      <trkpt lat="59.9562175" lon="17.7186956">
        <ele>51.5679</ele>
        <time>2013-05-15T21:03:36Z</time>
      </trkpt>
      <trkpt lat="59.9562187" lon="17.7187146">
        <ele>51.5679</ele>
        <time>2013-05-15T21:03:37Z</time>
      </trkpt>
      <trkpt lat="59.9562167" lon="17.7187349">
        <ele>51.5679</ele>
        <time>2013-05-15T21:03:38Z</time>
      </trkpt>
      <trkpt lat="59.956212" lon="17.7187549">
        <ele>51.5679</ele>
        <time>2013-05-15T21:03:39Z</time>
      </trkpt>
      <trkpt lat="59.9562068" lon="17.718776">
        <ele>51.5679</ele>
        <time>2013-05-15T21:03:40Z</time>
      </trkpt>
      <trkpt lat="59.9562005" lon="17.7188002">
        <ele>51.5679</ele>
        <time>2013-05-15T21:03:41Z</time>
      </trkpt>
      <trkpt lat="59.9561978" lon="17.718821">
        <ele>51.5679</ele>
        <time>2013-05-15T21:03:42Z</time>
      </trkpt>
      <trkpt lat="59.9561939" lon="17.718839">
        <ele>51.5679</ele>
        <time>2013-05-15T21:03:43Z</time>
      </trkpt>
      <trkpt lat="59.9561893" lon="17.7188647">
        <ele>52.0486</ele>
        <time>2013-05-15T21:03:44Z</time>
      </trkpt>
      <trkpt lat="59.956184" lon="17.7188945">
        <ele>52.0486</ele>
        <time>2013-05-15T21:03:45Z</time>
      </trkpt>
      <trkpt lat="59.9561769" lon="17.7189256">
        <ele>52.0486</ele>
        <time>2013-05-15T21:03:46Z</time>
      </trkpt>
      <trkpt lat="59.956172" lon="17.7189588">
        <ele>52.5292</ele>
        <time>2013-05-15T21:03:47Z</time>
      </trkpt>
      <trkpt lat="59.956165" lon="17.718983">
        <ele>52.5292</ele>
        <time>2013-05-15T21:03:48Z</time>
      </trkpt>
      <trkpt lat="59.9561545" lon="17.719008">
        <ele>52.5292</ele>
        <time>2013-05-15T21:03:49Z</time>
      </trkpt>
      <trkpt lat="59.9561466" lon="17.7190338">
        <ele>52.0486</ele>
        <time>2013-05-15T21:03:50Z</time>
      </trkpt>
      <trkpt lat="59.9561429" lon="17.7190668">
        <ele>52.5292</ele>
        <time>2013-05-15T21:03:51Z</time>
      </trkpt>
      <trkpt lat="59.956139" lon="17.719093">
        <ele>52.5292</ele>
        <time>2013-05-15T21:03:52Z</time>
      </trkpt>
      <trkpt lat="59.9561332" lon="17.7191153">
        <ele>52.5292</ele>
        <time>2013-05-15T21:03:53Z</time>
      </trkpt>
      <trkpt lat="59.9561238" lon="17.7191471">
        <ele>52.0486</ele>
        <time>2013-05-15T21:03:54Z</time>
      </trkpt>
      <trkpt lat="59.956112" lon="17.7191758">
        <ele>52.0486</ele>
        <time>2013-05-15T21:03:55Z</time>
      </trkpt>
      <trkpt lat="59.9560982" lon="17.7191994">
        <ele>51.5679</ele>
        <time>2013-05-15T21:03:56Z</time>
      </trkpt>
      <trkpt lat="59.9560844" lon="17.7192245">
        <ele>51.5679</ele>
        <time>2013-05-15T21:03:57Z</time>
      </trkpt>
      <trkpt lat="59.9560733" lon="17.7192505">
        <ele>51.0872</ele>
        <time>2013-05-15T21:03:58Z</time>
      </trkpt>
      <trkpt lat="59.9560607" lon="17.7192717">
        <ele>51.0872</ele>
        <time>2013-05-15T21:03:59Z</time>
      </trkpt>
      <trkpt lat="59.9560472" lon="17.719294">
        <ele>50.6066</ele>
        <time>2013-05-15T21:04:00Z</time>
      </trkpt>
      <trkpt lat="59.9560339" lon="17.719313">
        <ele>50.6066</ele>
        <time>2013-05-15T21:04:01Z</time>
      </trkpt>
      <trkpt lat="59.9560228" lon="17.7193266">
        <ele>50.126</ele>
        <time>2013-05-15T21:04:02Z</time>
      </trkpt>
      <trkpt lat="59.9560129" lon="17.7193539">
        <ele>49.6453</ele>
        <time>2013-05-15T21:04:03Z</time>
      </trkpt>
      <trkpt lat="59.9560039" lon="17.7193897">
        <ele>49.1646</ele>
        <time>2013-05-15T21:04:04Z</time>
      </trkpt>
      <trkpt lat="59.9559945" lon="17.719412">
        <ele>48.684</ele>
        <time>2013-05-15T21:04:05Z</time>
      </trkpt>
      <trkpt lat="59.9559873" lon="17.7194294">
        <ele>48.2034</ele>
        <time>2013-05-15T21:04:06Z</time>
      </trkpt>
      <trkpt lat="59.9559803" lon="17.7194513">
        <ele>48.2034</ele>
        <time>2013-05-15T21:04:07Z</time>
      </trkpt>
      <trkpt lat="59.9559699" lon="17.7194689">
        <ele>47.7225</ele>
        <time>2013-05-15T21:04:08Z</time>
      </trkpt>
      <trkpt lat="59.9559592" lon="17.719488">
        <ele>47.7225</ele>
        <time>2013-05-15T21:04:09Z</time>
      </trkpt>
      <trkpt lat="59.9559481" lon="17.7195107">
        <ele>47.2418</ele>
        <time>2013-05-15T21:04:10Z</time>
      </trkpt>
      <trkpt lat="59.9559411" lon="17.7195322">
        <ele>47.2418</ele>
        <time>2013-05-15T21:04:11Z</time>
      </trkpt>
      <trkpt lat="59.9559308" lon="17.7195472">
        <ele>47.2418</ele>
        <time>2013-05-15T21:04:12Z</time>
      </trkpt>
      <trkpt lat="59.9559223" lon="17.719558">
        <ele>46.7612</ele>
        <time>2013-05-15T21:04:13Z</time>
      </trkpt>
      <trkpt lat="59.9559124" lon="17.7195635">
        <ele>46.7612</ele>
        <time>2013-05-15T21:04:14Z</time>
      </trkpt>
      <trkpt lat="59.9558989" lon="17.7195762">
        <ele>46.7612</ele>
        <time>2013-05-15T21:04:15Z</time>
      </trkpt>
      <trkpt lat="59.9558893" lon="17.719586">
        <ele>46.7612</ele>
        <time>2013-05-15T21:04:16Z</time>
      </trkpt>
      <trkpt lat="59.9558811" lon="17.7195954">
        <ele>46.7612</ele>
        <time>2013-05-15T21:04:17Z</time>
      </trkpt>
      <trkpt lat="59.9558694" lon="17.7196084">
        <ele>46.7612</ele>
        <time>2013-05-15T21:04:18Z</time>
      </trkpt>
      <trkpt lat="59.955859" lon="17.7196133">
        <ele>46.7612</ele>
        <time>2013-05-15T21:04:19Z</time>
      </trkpt>
      <trkpt lat="59.9558513" lon="17.7196148">
        <ele>46.7612</ele>
        <time>2013-05-15T21:04:20Z</time>
      </trkpt>
      <trkpt lat="59.9558412" lon="17.7196205">
        <ele>46.7612</ele>
        <time>2013-05-15T21:04:21Z</time>
      </trkpt>
      <trkpt lat="59.9558292" lon="17.7196275">
        <ele>46.7612</ele>
        <time>2013-05-15T21:04:22Z</time>
      </trkpt>
      <trkpt lat="59.9558182" lon="17.7196362">
        <ele>46.7612</ele>
        <time>2013-05-15T21:04:23Z</time>
      </trkpt>
      <trkpt lat="59.9558064" lon="17.7196513">
        <ele>46.7612</ele>
        <time>2013-05-15T21:04:24Z</time>
      </trkpt>
      <trkpt lat="59.9557956" lon="17.7196699">
        <ele>47.2418</ele>
        <time>2013-05-15T21:04:25Z</time>
      </trkpt>
      <trkpt lat="59.9557904" lon="17.7196813">
        <ele>47.2418</ele>
        <time>2013-05-15T21:04:26Z</time>
      </trkpt>
      <trkpt lat="59.955779" lon="17.719692">
        <ele>47.2418</ele>
        <time>2013-05-15T21:04:27Z</time>
      </trkpt>
      <trkpt lat="59.9557638" lon="17.7196938">
        <ele>47.2418</ele>
        <time>2013-05-15T21:04:28Z</time>
      </trkpt>
      <trkpt lat="59.9557505" lon="17.7196965">
        <ele>47.2418</ele>
        <time>2013-05-15T21:04:29Z</time>
      </trkpt>
      <trkpt lat="59.9557401" lon="17.719699">
        <ele>46.7612</ele>
        <time>2013-05-15T21:04:30Z</time>
      </trkpt>
      <trkpt lat="59.9557287" lon="17.7197039">
        <ele>47.2418</ele>
        <time>2013-05-15T21:04:31Z</time>
      </trkpt>
      <trkpt lat="59.9557194" lon="17.719712">
        <ele>47.2418</ele>
        <time>2013-05-15T21:04:32Z</time>
      </trkpt>
      <trkpt lat="59.9557081" lon="17.7197243">
        <ele>47.2418</ele>
        <time>2013-05-15T21:04:33Z</time>
      </trkpt>
      <trkpt lat="59.9556995" lon="17.7197382">
        <ele>47.2418</ele>
        <time>2013-05-15T21:04:34Z</time>
      </trkpt>
      <trkpt lat="59.9556926" lon="17.7197509">
        <ele>47.7225</ele>
        <time>2013-05-15T21:04:35Z</time>
      </trkpt>
      <trkpt lat="59.955684" lon="17.7197751">
        <ele>47.7225</ele>
        <time>2013-05-15T21:04:36Z</time>
      </trkpt>
      <trkpt lat="59.9556697" lon="17.719794">
        <ele>48.2034</ele>
        <time>2013-05-15T21:04:37Z</time>
      </trkpt>
      <trkpt lat="59.9556549" lon="17.7198004">
        <ele>47.7225</ele>
        <time>2013-05-15T21:04:38Z</time>
      </trkpt>
      <trkpt lat="59.9556416" lon="17.7198006">
        <ele>47.7225</ele>
        <time>2013-05-15T21:04:39Z</time>
      </trkpt>
      <trkpt lat="59.9556255" lon="17.7198063">
        <ele>47.7225</ele>
        <time>2013-05-15T21:04:40Z</time>
      </trkpt>
      <trkpt lat="59.9556106" lon="17.7198148">
        <ele>47.7225</ele>
        <time>2013-05-15T21:04:41Z</time>
      </trkpt>
      <trkpt lat="59.9555982" lon="17.7198249">
        <ele>47.7225</ele>
        <time>2013-05-15T21:04:42Z</time>
      </trkpt>
      <trkpt lat="59.9555877" lon="17.7198336">
        <ele>47.7225</ele>
        <time>2013-05-15T21:04:43Z</time>
      </trkpt>
      <trkpt lat="59.9555789" lon="17.7198394">
        <ele>48.2034</ele>
        <time>2013-05-15T21:04:44Z</time>
      </trkpt>
      <trkpt lat="59.9555713" lon="17.7198403">
        <ele>48.2034</ele>
        <time>2013-05-15T21:04:45Z</time>
      </trkpt>
      <trkpt lat="59.955562" lon="17.7198455">
        <ele>48.2034</ele>
        <time>2013-05-15T21:04:46Z</time>
      </trkpt>
      <trkpt lat="59.9555515" lon="17.7198476">
        <ele>48.2034</ele>
        <time>2013-05-15T21:04:47Z</time>
      </trkpt>
      <trkpt lat="59.9555411" lon="17.7198465">
        <ele>48.2034</ele>
        <time>2013-05-15T21:04:48Z</time>
      </trkpt>
      <trkpt lat="59.9555315" lon="17.7198508">
        <ele>48.2034</ele>
        <time>2013-05-15T21:04:49Z</time>
      </trkpt>
      <trkpt lat="59.9555223" lon="17.7198527">
        <ele>48.2034</ele>
        <time>2013-05-15T21:04:50Z</time>
      </trkpt>
      <trkpt lat="59.9555087" lon="17.7198636">
        <ele>48.2034</ele>
        <time>2013-05-15T21:04:51Z</time>
      </trkpt>
      <trkpt lat="59.9554947" lon="17.7198747">
        <ele>48.684</ele>
        <time>2013-05-15T21:04:52Z</time>
      </trkpt>
      <trkpt lat="59.9554801" lon="17.7198911">
        <ele>49.1646</ele>
        <time>2013-05-15T21:04:53Z</time>
      </trkpt>
      <trkpt lat="59.9554652" lon="17.7199049">
        <ele>49.6453</ele>
        <time>2013-05-15T21:04:54Z</time>
      </trkpt>
      <trkpt lat="59.9554532" lon="17.7199161">
        <ele>49.6453</ele>
        <time>2013-05-15T21:04:55Z</time>
      </trkpt>
      <trkpt lat="59.9554406" lon="17.7199284">
        <ele>49.1646</ele>
        <time>2013-05-15T21:04:56Z</time>
      </trkpt>
      <trkpt lat="59.9554281" lon="17.7199381">
        <ele>49.1646</ele>
        <time>2013-05-15T21:04:57Z</time>
      </trkpt>
      <trkpt lat="59.9554148" lon="17.7199568">
        <ele>49.1646</ele>
        <time>2013-05-15T21:04:58Z</time>
      </trkpt>
      <trkpt lat="59.9553999" lon="17.7199833">
        <ele>49.1646</ele>
        <time>2013-05-15T21:04:59Z</time>
      </trkpt>
      <trkpt lat="59.9553873" lon="17.7200071">
        <ele>48.684</ele>
        <time>2013-05-15T21:05:00Z</time>
      </trkpt>
      <trkpt lat="59.9553728" lon="17.7200268">
        <ele>48.684</ele>
        <time>2013-05-15T21:05:01Z</time>
      </trkpt>
      <trkpt lat="59.9553557" lon="17.7200448">
        <ele>48.684</ele>
        <time>2013-05-15T21:05:02Z</time>
      </trkpt>
      <trkpt lat="59.9553418" lon="17.7200569">
        <ele>48.2034</ele>
        <time>2013-05-15T21:05:03Z</time>
      </trkpt>
      <trkpt lat="59.9553276" lon="17.7200672">
        <ele>47.7225</ele>
        <time>2013-05-15T21:05:04Z</time>
      </trkpt>
      <trkpt lat="59.9553186" lon="17.7200796">
        <ele>47.7225</ele>
        <time>2013-05-15T21:05:05Z</time>
      </trkpt>
      <trkpt lat="59.9553133" lon="17.7200849">
        <ele>47.7225</ele>
        <time>2013-05-15T21:05:06Z</time>
      </trkpt>
      <trkpt lat="59.955307" lon="17.7200933">
        <ele>46.7612</ele>
        <time>2013-05-15T21:05:07Z</time>
      </trkpt>
      <trkpt lat="59.9552977" lon="17.7200999">
        <ele>46.7612</ele>
        <time>2013-05-15T21:05:08Z</time>
      </trkpt>
      <trkpt lat="59.9552874" lon="17.7201069">
        <ele>46.7612</ele>
        <time>2013-05-15T21:05:09Z</time>
      </trkpt>
      <trkpt lat="59.9552755" lon="17.7201113">
        <ele>46.2806</ele>
        <time>2013-05-15T21:05:10Z</time>
      </trkpt>
      <trkpt lat="59.9552593" lon="17.7201165">
        <ele>46.2806</ele>
        <time>2013-05-15T21:05:11Z</time>
      </trkpt>
      <trkpt lat="59.9552436" lon="17.7201257">
        <ele>45.7999</ele>
        <time>2013-05-15T21:05:12Z</time>
      </trkpt>
      <trkpt lat="59.9552318" lon="17.7201342">
        <ele>45.3192</ele>
        <time>2013-05-15T21:05:13Z</time>
      </trkpt>
      <trkpt lat="59.9552178" lon="17.7201563">
        <ele>45.3192</ele>
        <time>2013-05-15T21:05:14Z</time>
      </trkpt>
      <trkpt lat="59.9552092" lon="17.7201776">
        <ele>44.8386</ele>
        <time>2013-05-15T21:05:15Z</time>
      </trkpt>
      <trkpt lat="59.9552004" lon="17.7201987">
        <ele>44.358</ele>
        <time>2013-05-15T21:05:16Z</time>
      </trkpt>
      <trkpt lat="59.9551911" lon="17.7202139">
        <ele>44.358</ele>
        <time>2013-05-15T21:05:17Z</time>
      </trkpt>
      <trkpt lat="59.9551812" lon="17.7202259">
        <ele>44.358</ele>
        <time>2013-05-15T21:05:18Z</time>
      </trkpt>
      <trkpt lat="59.9551728" lon="17.7202324">
        <ele>44.8386</ele>
        <time>2013-05-15T21:05:19Z</time>
      </trkpt>
      <trkpt lat="59.9551605" lon="17.7202469">
        <ele>44.8386</ele>
        <time>2013-05-15T21:05:20Z</time>
      </trkpt>
      <trkpt lat="59.9551439" lon="17.7202672">
        <ele>44.358</ele>
        <time>2013-05-15T21:05:21Z</time>
      </trkpt>
      <trkpt lat="59.9551263" lon="17.7202858">
        <ele>43.8773</ele>
        <time>2013-05-15T21:05:22Z</time>
      </trkpt>
      <trkpt lat="59.9551148" lon="17.7203029">
        <ele>43.8773</ele>
        <time>2013-05-15T21:05:23Z</time>
      </trkpt>
      <trkpt lat="59.9550998" lon="17.7203227">
        <ele>43.8773</ele>
        <time>2013-05-15T21:05:24Z</time>
      </trkpt>
      <trkpt lat="59.9550853" lon="17.720334">
        <ele>43.8773</ele>
        <time>2013-05-15T21:05:25Z</time>
      </trkpt>
      <trkpt lat="59.9550739" lon="17.7203568">
        <ele>43.8773</ele>
        <time>2013-05-15T21:05:26Z</time>
      </trkpt>
      <trkpt lat="59.9550644" lon="17.720375">
        <ele>43.8773</ele>
        <time>2013-05-15T21:05:27Z</time>
      </trkpt>
      <trkpt lat="59.9550521" lon="17.7203989">
        <ele>44.358</ele>
        <time>2013-05-15T21:05:28Z</time>
      </trkpt>
      <trkpt lat="59.9550361" lon="17.7204189">
        <ele>44.358</ele>
        <time>2013-05-15T21:05:29Z</time>
      </trkpt>
      <trkpt lat="59.9550221" lon="17.7204302">
        <ele>44.358</ele>
        <time>2013-05-15T21:05:30Z</time>
      </trkpt>
      <trkpt lat="59.9550095" lon="17.7204403">
        <ele>44.358</ele>
        <time>2013-05-15T21:05:31Z</time>
      </trkpt>
      <trkpt lat="59.954993" lon="17.7204563">
        <ele>43.8773</ele>
        <time>2013-05-15T21:05:32Z</time>
      </trkpt>
      <trkpt lat="59.9549741" lon="17.7204701">
        <ele>43.8773</ele>
        <time>2013-05-15T21:05:33Z</time>
      </trkpt>
      <trkpt lat="59.9549605" lon="17.7204812">
        <ele>43.8773</ele>
        <time>2013-05-15T21:05:34Z</time>
      </trkpt>
      <trkpt lat="59.9549501" lon="17.7204904">
        <ele>43.8773</ele>
        <time>2013-05-15T21:05:35Z</time>
      </trkpt>
      <trkpt lat="59.9549392" lon="17.7205029">
        <ele>43.8773</ele>
        <time>2013-05-15T21:05:36Z</time>
      </trkpt>
      <trkpt lat="59.9549257" lon="17.7205179">
        <ele>43.8773</ele>
        <time>2013-05-15T21:05:37Z</time>
      </trkpt>
      <trkpt lat="59.9549122" lon="17.7205272">
        <ele>43.8773</ele>
        <time>2013-05-15T21:05:38Z</time>
      </trkpt>
      <trkpt lat="59.954902" lon="17.7205385">
        <ele>43.8773</ele>
        <time>2013-05-15T21:05:39Z</time>
      </trkpt>
      <trkpt lat="59.9548916" lon="17.7205538">
        <ele>43.8773</ele>
        <time>2013-05-15T21:05:40Z</time>
      </trkpt>
      <trkpt lat="59.9548875" lon="17.7205583">
        <ele>43.3966</ele>
        <time>2013-05-15T21:05:41Z</time>
      </trkpt>
      <trkpt lat="59.9548838" lon="17.7205706">
        <ele>42.4354</ele>
        <time>2013-05-15T21:05:42Z</time>
      </trkpt>
      <trkpt lat="59.9548708" lon="17.7206002">
        <ele>42.916</ele>
        <time>2013-05-15T21:05:43Z</time>
      </trkpt>
      <trkpt lat="59.9548635" lon="17.7206247">
        <ele>42.916</ele>
        <time>2013-05-15T21:05:44Z</time>
      </trkpt>
      <trkpt lat="59.95486" lon="17.72065">
        <ele>42.4354</ele>
        <time>2013-05-15T21:05:45Z</time>
      </trkpt>
      <trkpt lat="59.9548553" lon="17.7206744">
        <ele>42.4354</ele>
        <time>2013-05-15T21:05:46Z</time>
      </trkpt>
      <trkpt lat="59.954845" lon="17.720703">
        <ele>43.3966</ele>
        <time>2013-05-15T21:05:47Z</time>
      </trkpt>
      <trkpt lat="59.9548408" lon="17.7207192">
        <ele>43.3966</ele>
        <time>2013-05-15T21:05:48Z</time>
      </trkpt>
      <trkpt lat="59.9548401" lon="17.7207402">
        <ele>43.8773</ele>
        <time>2013-05-15T21:05:49Z</time>
      </trkpt>
      <trkpt lat="59.9548411" lon="17.7207622">
        <ele>43.8773</ele>
        <time>2013-05-15T21:05:50Z</time>
      </trkpt>
      <trkpt lat="59.9548435" lon="17.7207964">
        <ele>44.8386</ele>
        <time>2013-05-15T21:05:51Z</time>
      </trkpt>
      <trkpt lat="59.9548434" lon="17.7208314">
        <ele>44.8386</ele>
        <time>2013-05-15T21:05:52Z</time>
      </trkpt>
      <trkpt lat="59.954847" lon="17.7208707">
        <ele>45.3192</ele>
        <time>2013-05-15T21:05:53Z</time>
      </trkpt>
      <trkpt lat="59.954852" lon="17.7208998">
        <ele>45.3192</ele>
        <time>2013-05-15T21:05:54Z</time>
      </trkpt>
      <trkpt lat="59.9548558" lon="17.720922">
        <ele>45.7999</ele>
        <time>2013-05-15T21:05:55Z</time>
      </trkpt>
      <trkpt lat="59.954859" lon="17.7209437">
        <ele>45.7999</ele>
        <time>2013-05-15T21:05:56Z</time>
      </trkpt>
      <trkpt lat="59.9548601" lon="17.7209708">
        <ele>45.3192</ele>
        <time>2013-05-15T21:05:57Z</time>
      </trkpt>
      <trkpt lat="59.9548636" lon="17.7209981">
        <ele>45.3192</ele>
        <time>2013-05-15T21:05:58Z</time>
      </trkpt>
      <trkpt lat="59.9548637" lon="17.7210327">
        <ele>45.7999</ele>
        <time>2013-05-15T21:05:59Z</time>
      </trkpt>
      <trkpt lat="59.9548662" lon="17.7210652">
        <ele>45.7999</ele>
        <time>2013-05-15T21:06:00Z</time>
      </trkpt>
      <trkpt lat="59.9548724" lon="17.7210963">
        <ele>46.2806</ele>
        <time>2013-05-15T21:06:01Z</time>
      </trkpt>
      <trkpt lat="59.9548772" lon="17.7211272">
        <ele>45.7999</ele>
        <time>2013-05-15T21:06:02Z</time>
      </trkpt>
      <trkpt lat="59.9548812" lon="17.7211581">
        <ele>46.2806</ele>
        <time>2013-05-15T21:06:03Z</time>
      </trkpt>
      <trkpt lat="59.9548884" lon="17.7211795">
        <ele>46.7612</ele>
        <time>2013-05-15T21:06:04Z</time>
      </trkpt>
      <trkpt lat="59.9548977" lon="17.721199">
        <ele>46.7612</ele>
        <time>2013-05-15T21:06:05Z</time>
      </trkpt>
      <trkpt lat="59.9549087" lon="17.7212098">
        <ele>47.7225</ele>
        <time>2013-05-15T21:06:06Z</time>
      </trkpt>
      <trkpt lat="59.9549185" lon="17.7212189">
        <ele>47.7225</ele>
        <time>2013-05-15T21:06:07Z</time>
      </trkpt>
      <trkpt lat="59.9549254" lon="17.7212261">
        <ele>47.7225</ele>
        <time>2013-05-15T21:06:08Z</time>
      </trkpt>
      <trkpt lat="59.954932" lon="17.7212329">
        <ele>47.7225</ele>
        <time>2013-05-15T21:06:09Z</time>
      </trkpt>
      <trkpt lat="59.9549414" lon="17.721241">
        <ele>48.2034</ele>
        <time>2013-05-15T21:06:10Z</time>
      </trkpt>
      <trkpt lat="59.9549541" lon="17.7212476">
        <ele>48.2034</ele>
        <time>2013-05-15T21:06:11Z</time>
      </trkpt>
      <trkpt lat="59.9549675" lon="17.7212592">
        <ele>48.2034</ele>
        <time>2013-05-15T21:06:12Z</time>
      </trkpt>
      <trkpt lat="59.9549795" lon="17.7212671">
        <ele>48.684</ele>
        <time>2013-05-15T21:06:13Z</time>
      </trkpt>
      <trkpt lat="59.9549863" lon="17.7212686">
        <ele>48.2034</ele>
        <time>2013-05-15T21:06:14Z</time>
      </trkpt>
      <trkpt lat="59.9549987" lon="17.7212696">
        <ele>48.2034</ele>
        <time>2013-05-15T21:06:15Z</time>
      </trkpt>
      <trkpt lat="59.9550102" lon="17.7212747">
        <ele>48.684</ele>
        <time>2013-05-15T21:06:16Z</time>
      </trkpt>
      <trkpt lat="59.9550262" lon="17.7212768">
        <ele>49.1646</ele>
        <time>2013-05-15T21:06:17Z</time>
      </trkpt>
      <trkpt lat="59.9550412" lon="17.7212798">
        <ele>49.6453</ele>
        <time>2013-05-15T21:06:18Z</time>
      </trkpt>
      <trkpt lat="59.955052" lon="17.721274">
        <ele>49.6453</ele>
        <time>2013-05-15T21:06:19Z</time>
      </trkpt>
      <trkpt lat="59.9550614" lon="17.7212626">
        <ele>49.6453</ele>
        <time>2013-05-15T21:06:20Z</time>
      </trkpt>
      <trkpt lat="59.9550723" lon="17.7212566">
        <ele>50.126</ele>
        <time>2013-05-15T21:06:21Z</time>
      </trkpt>
      <trkpt lat="59.9550834" lon="17.7212535">
        <ele>49.6453</ele>
        <time>2013-05-15T21:06:22Z</time>
      </trkpt>
      <trkpt lat="59.9550953" lon="17.7212519">
        <ele>49.6453</ele>
        <time>2013-05-15T21:06:23Z</time>
      </trkpt>
      <trkpt lat="59.9551143" lon="17.7212473">
        <ele>50.6066</ele>
        <time>2013-05-15T21:06:24Z</time>
      </trkpt>
      <trkpt lat="59.9551367" lon="17.7212323">
        <ele>52.0486</ele>
        <time>2013-05-15T21:06:25Z</time>
      </trkpt>
      <trkpt lat="59.9551594" lon="17.7212292">
        <ele>52.5292</ele>
        <time>2013-05-15T21:06:26Z</time>
      </trkpt>
      <trkpt lat="59.9551729" lon="17.7212285">
        <ele>52.0486</ele>
        <time>2013-05-15T21:06:27Z</time>
      </trkpt>
      <trkpt lat="59.9551837" lon="17.7212298">
        <ele>52.0486</ele>
        <time>2013-05-15T21:06:28Z</time>
      </trkpt>
      <trkpt lat="59.9551967" lon="17.7212305">
        <ele>52.0486</ele>
        <time>2013-05-15T21:06:29Z</time>
      </trkpt>
      <trkpt lat="59.9552137" lon="17.7212353">
        <ele>52.5292</ele>
        <time>2013-05-15T21:06:30Z</time>
      </trkpt>
      <trkpt lat="59.9552292" lon="17.7212457">
        <ele>52.5292</ele>
        <time>2013-05-15T21:06:31Z</time>
      </trkpt>
      <trkpt lat="59.9552413" lon="17.7212552">
        <ele>52.0486</ele>
        <time>2013-05-15T21:06:32Z</time>
      </trkpt>
      <trkpt lat="59.9552573" lon="17.7212637">
        <ele>52.0486</ele>
        <time>2013-05-15T21:06:33Z</time>
      </trkpt>
      <trkpt lat="59.9552722" lon="17.7212618">
        <ele>52.0486</ele>
        <time>2013-05-15T21:06:34Z</time>
      </trkpt>
      <trkpt lat="59.9552858" lon="17.7212585">
        <ele>52.5292</ele>
        <time>2013-05-15T21:06:35Z</time>
      </trkpt>
      <trkpt lat="59.9553009" lon="17.721258">
        <ele>52.5292</ele>
        <time>2013-05-15T21:06:36Z</time>
      </trkpt>
      <trkpt lat="59.9553164" lon="17.7212592">
        <ele>53.0098</ele>
        <time>2013-05-15T21:06:37Z</time>
      </trkpt>
      <trkpt lat="59.9553315" lon="17.721268">
        <ele>53.9712</ele>
        <time>2013-05-15T21:06:38Z</time>
      </trkpt>
      <trkpt lat="59.955346" lon="17.7212743">
        <ele>53.9712</ele>
        <time>2013-05-15T21:06:39Z</time>
      </trkpt>
      <trkpt lat="59.9553604" lon="17.7212856">
        <ele>54.4518</ele>
        <time>2013-05-15T21:06:40Z</time>
      </trkpt>
      <trkpt lat="59.9553775" lon="17.7212898">
        <ele>54.9324</ele>
        <time>2013-05-15T21:06:41Z</time>
      </trkpt>
      <trkpt lat="59.9553941" lon="17.7212918">
        <ele>54.9324</ele>
        <time>2013-05-15T21:06:42Z</time>
      </trkpt>
      <trkpt lat="59.9554096" lon="17.7212913">
        <ele>54.4518</ele>
        <time>2013-05-15T21:06:43Z</time>
      </trkpt>
      <trkpt lat="59.9554265" lon="17.7212948">
        <ele>54.4518</ele>
        <time>2013-05-15T21:06:44Z</time>
      </trkpt>
      <trkpt lat="59.9554463" lon="17.7212908">
        <ele>54.9324</ele>
        <time>2013-05-15T21:06:45Z</time>
      </trkpt>
      <trkpt lat="59.9554594" lon="17.7212877">
        <ele>54.4518</ele>
        <time>2013-05-15T21:06:46Z</time>
      </trkpt>
      <trkpt lat="59.9554713" lon="17.721283">
        <ele>53.9712</ele>
        <time>2013-05-15T21:06:47Z</time>
      </trkpt>
      <trkpt lat="59.955484" lon="17.7212732">
        <ele>53.9712</ele>
        <time>2013-05-15T21:06:48Z</time>
      </trkpt>
      <trkpt lat="59.9554972" lon="17.7212665">
        <ele>53.4905</ele>
        <time>2013-05-15T21:06:49Z</time>
      </trkpt>
      <trkpt lat="59.9555123" lon="17.72126">
        <ele>53.9712</ele>
        <time>2013-05-15T21:06:50Z</time>
      </trkpt>
      <trkpt lat="59.9555251" lon="17.7212514">
        <ele>53.9712</ele>
        <time>2013-05-15T21:06:51Z</time>
      </trkpt>
      <trkpt lat="59.9555381" lon="17.721251">
        <ele>53.9712</ele>
        <time>2013-05-15T21:06:52Z</time>
      </trkpt>
      <trkpt lat="59.9555521" lon="17.7212523">
        <ele>54.4518</ele>
        <time>2013-05-15T21:06:53Z</time>
      </trkpt>
      <trkpt lat="59.9555656" lon="17.7212519">
        <ele>54.9324</ele>
        <time>2013-05-15T21:06:54Z</time>
      </trkpt>
      <trkpt lat="59.9555833" lon="17.7212471">
        <ele>55.4131</ele>
        <time>2013-05-15T21:06:55Z</time>
      </trkpt>
      <trkpt lat="59.9555956" lon="17.7212457">
        <ele>54.9324</ele>
        <time>2013-05-15T21:06:56Z</time>
      </trkpt>
      <trkpt lat="59.9556062" lon="17.7212436">
        <ele>54.4518</ele>
        <time>2013-05-15T21:06:57Z</time>
      </trkpt>
      <trkpt lat="59.9556185" lon="17.7212385">
        <ele>53.9712</ele>
        <time>2013-05-15T21:06:58Z</time>
      </trkpt>
      <trkpt lat="59.9556324" lon="17.7212321">
        <ele>54.4518</ele>
        <time>2013-05-15T21:06:59Z</time>
      </trkpt>
      <trkpt lat="59.9556469" lon="17.7212287">
        <ele>54.4518</ele>
        <time>2013-05-15T21:07:00Z</time>
      </trkpt>
      <trkpt lat="59.9556623" lon="17.7212167">
        <ele>54.4518</ele>
        <time>2013-05-15T21:07:01Z</time>
      </trkpt>
      <trkpt lat="59.9556779" lon="17.7212053">
        <ele>53.9712</ele>
        <time>2013-05-15T21:07:02Z</time>
      </trkpt>
      <trkpt lat="59.9556935" lon="17.721203">
        <ele>53.9712</ele>
        <time>2013-05-15T21:07:03Z</time>
      </trkpt>
      <trkpt lat="59.955705" lon="17.7212025">
        <ele>53.0098</ele>
        <time>2013-05-15T21:07:04Z</time>
      </trkpt>
      <trkpt lat="59.9557188" lon="17.7211994">
        <ele>52.5292</ele>
        <time>2013-05-15T21:07:05Z</time>
      </trkpt>
      <trkpt lat="59.9557345" lon="17.7211948">
        <ele>52.0486</ele>
        <time>2013-05-15T21:07:06Z</time>
      </trkpt>
      <trkpt lat="59.9557508" lon="17.7211909">
        <ele>51.5679</ele>
        <time>2013-05-15T21:07:07Z</time>
      </trkpt>
      <trkpt lat="59.9557692" lon="17.7211929">
        <ele>50.6066</ele>
        <time>2013-05-15T21:07:08Z</time>
      </trkpt>
      <trkpt lat="59.9557836" lon="17.7211954">
        <ele>49.6453</ele>
        <time>2013-05-15T21:07:09Z</time>
      </trkpt>
      <trkpt lat="59.9557948" lon="17.721193">
        <ele>49.6453</ele>
        <time>2013-05-15T21:07:10Z</time>
      </trkpt>
      <trkpt lat="59.955808" lon="17.7211916">
        <ele>49.6453</ele>
        <time>2013-05-15T21:07:11Z</time>
      </trkpt>
      <trkpt lat="59.9558225" lon="17.721194">
        <ele>50.126</ele>
        <time>2013-05-15T21:07:12Z</time>
      </trkpt>
      <trkpt lat="59.9558375" lon="17.7212038">
        <ele>49.6453</ele>
        <time>2013-05-15T21:07:13Z</time>
      </trkpt>
      <trkpt lat="59.9558541" lon="17.7212141">
        <ele>49.6453</ele>
        <time>2013-05-15T21:07:14Z</time>
      </trkpt>
      <trkpt lat="59.955867" lon="17.7212264">
        <ele>49.6453</ele>
        <time>2013-05-15T21:07:15Z</time>
      </trkpt>
      <trkpt lat="59.9558784" lon="17.7212432">
        <ele>49.1646</ele>
        <time>2013-05-15T21:07:16Z</time>
      </trkpt>
      <trkpt lat="59.9558889" lon="17.7212639">
        <ele>49.1646</ele>
        <time>2013-05-15T21:07:17Z</time>
      </trkpt>
      <trkpt lat="59.9559012" lon="17.7212871">
        <ele>49.1646</ele>
        <time>2013-05-15T21:07:18Z</time>
      </trkpt>
      <trkpt lat="59.9559105" lon="17.7213093">
        <ele>48.684</ele>
        <time>2013-05-15T21:07:19Z</time>
      </trkpt>
      <trkpt lat="59.9559184" lon="17.721331">
        <ele>48.684</ele>
        <time>2013-05-15T21:07:20Z</time>
      </trkpt>
      <trkpt lat="59.9559248" lon="17.7213582">
        <ele>48.684</ele>
        <time>2013-05-15T21:07:21Z</time>
      </trkpt>
      <trkpt lat="59.9559306" lon="17.7213893">
        <ele>48.684</ele>
        <time>2013-05-15T21:07:22Z</time>
      </trkpt>
      <trkpt lat="59.9559357" lon="17.7214152">
        <ele>48.684</ele>
        <time>2013-05-15T21:07:23Z</time>
      </trkpt>
      <trkpt lat="59.9559447" lon="17.7214487">
        <ele>49.1646</ele>
        <time>2013-05-15T21:07:24Z</time>
      </trkpt>
      <trkpt lat="59.9559484" lon="17.7214752">
        <ele>49.1646</ele>
        <time>2013-05-15T21:07:25Z</time>
      </trkpt>
      <trkpt lat="59.9559516" lon="17.7215016">
        <ele>49.1646</ele>
        <time>2013-05-15T21:07:26Z</time>
      </trkpt>
      <trkpt lat="59.9559526" lon="17.7215285">
        <ele>49.1646</ele>
        <time>2013-05-15T21:07:27Z</time>
      </trkpt>
      <trkpt lat="59.9559525" lon="17.7215551">
        <ele>49.6453</ele>
        <time>2013-05-15T21:07:28Z</time>
      </trkpt>
      <trkpt lat="59.9559534" lon="17.7215853">
        <ele>50.126</ele>
        <time>2013-05-15T21:07:29Z</time>
      </trkpt>
      <trkpt lat="59.9559585" lon="17.7216262">
        <ele>50.6066</ele>
        <time>2013-05-15T21:07:30Z</time>
      </trkpt>
      <trkpt lat="59.9559542" lon="17.7216565">
        <ele>50.126</ele>
        <time>2013-05-15T21:07:31Z</time>
      </trkpt>
      <trkpt lat="59.9559466" lon="17.7216823">
        <ele>50.126</ele>
        <time>2013-05-15T21:07:32Z</time>
      </trkpt>
      <trkpt lat="59.9559409" lon="17.7217083">
        <ele>49.6453</ele>
        <time>2013-05-15T21:07:33Z</time>
      </trkpt>
      <trkpt lat="59.9559383" lon="17.721727">
        <ele>49.1646</ele>
        <time>2013-05-15T21:07:34Z</time>
      </trkpt>
      <trkpt lat="59.9559337" lon="17.7217532">
        <ele>48.684</ele>
        <time>2013-05-15T21:07:35Z</time>
      </trkpt>
      <trkpt lat="59.955928" lon="17.7217822">
        <ele>47.7225</ele>
        <time>2013-05-15T21:07:36Z</time>
      </trkpt>
      <trkpt lat="59.9559239" lon="17.7218047">
        <ele>47.7225</ele>
        <time>2013-05-15T21:07:37Z</time>
      </trkpt>
      <trkpt lat="59.9559217" lon="17.7218295">
        <ele>47.2418</ele>
        <time>2013-05-15T21:07:38Z</time>
      </trkpt>
      <trkpt lat="59.9559176" lon="17.721861">
        <ele>47.7225</ele>
        <time>2013-05-15T21:07:39Z</time>
      </trkpt>
      <trkpt lat="59.9559143" lon="17.7219001">
        <ele>48.2034</ele>
        <time>2013-05-15T21:07:40Z</time>
      </trkpt>
      <trkpt lat="59.9559137" lon="17.7219487">
        <ele>48.684</ele>
        <time>2013-05-15T21:07:41Z</time>
      </trkpt>
      <trkpt lat="59.9559143" lon="17.7219835">
        <ele>48.684</ele>
        <time>2013-05-15T21:07:42Z</time>
      </trkpt>
      <trkpt lat="59.9559142" lon="17.722043">
        <ele>49.6453</ele>
        <time>2013-05-15T21:07:43Z</time>
      </trkpt>
      <trkpt lat="59.95592" lon="17.7220904">
        <ele>50.126</ele>
        <time>2013-05-15T21:07:44Z</time>
      </trkpt>
      <trkpt lat="59.9559245" lon="17.7221283">
        <ele>50.126</ele>
        <time>2013-05-15T21:07:45Z</time>
      </trkpt>
      <trkpt lat="59.9559271" lon="17.7221697">
        <ele>50.6066</ele>
        <time>2013-05-15T21:07:46Z</time>
      </trkpt>
      <trkpt lat="59.9559239" lon="17.7221989">
        <ele>50.126</ele>
        <time>2013-05-15T21:07:47Z</time>
      </trkpt>
      <trkpt lat="59.9559223" lon="17.7222232">
        <ele>50.6066</ele>
        <time>2013-05-15T21:07:48Z</time>
      </trkpt>
      <trkpt lat="59.955923" lon="17.7222408">
        <ele>50.126</ele>
        <time>2013-05-15T21:07:49Z</time>
      </trkpt>
      <trkpt lat="59.9559223" lon="17.722267">
        <ele>50.126</ele>
        <time>2013-05-15T21:07:50Z</time>
      </trkpt>
      <trkpt lat="59.955922" lon="17.7222977">
        <ele>50.126</ele>
        <time>2013-05-15T21:07:51Z</time>
      </trkpt>
      <trkpt lat="59.9559241" lon="17.7223206">
        <ele>50.6066</ele>
        <time>2013-05-15T21:07:52Z</time>
      </trkpt>
      <trkpt lat="59.955929" lon="17.7223506">
        <ele>50.6066</ele>
        <time>2013-05-15T21:07:53Z</time>
      </trkpt>
      <trkpt lat="59.95593" lon="17.7223838">
        <ele>50.126</ele>
        <time>2013-05-15T21:07:54Z</time>
      </trkpt>
      <trkpt lat="59.9559319" lon="17.7224048">
        <ele>49.6453</ele>
        <time>2013-05-15T21:07:55Z</time>
      </trkpt>
      <trkpt lat="59.9559359" lon="17.7224241">
        <ele>49.1646</ele>
        <time>2013-05-15T21:07:56Z</time>
      </trkpt>
      <trkpt lat="59.9559398" lon="17.7224273">
        <ele>48.684</ele>
        <time>2013-05-15T21:07:57Z</time>
      </trkpt>
    </trkseg>
  </trk>
</gpx>